Terminal Aerodrome Forecast
Issued by NWS

Home | Current Version | Previous Version | Graphics & Text | Print | Product List | Glossary On
Versions: 1 2 3 4 5 6 7 8 9 10 11 12 13 14 15 16 17 18 19 20 21 22 23 24 25 26 27 28 29 30 31 32 33 34 35 36
000
FTUS43 KGRB 230441 AAA
TAFATW
TAF AMD
KATW 230441Z 2305/2324 24005KT 6SM -SHRA SCT025 OVC060
      TEMPO 2305/2306 3SM TSRA BKN025CB
     FM230600 34004KT P6SM -SHRA OVC050
     FM230900 29006KT P6SM SCT090
     FM231500 28013G22KT P6SM SCT045=

USA.gov is the U.S. government's official web portal to all federal, state and local government web resources and services.